Time;durP1;ratioP1;P1;durP2;ratioP2;P2;SDS_P1;SDS_P2;PMS_P1;PMS_P2;Temp;Humidity;BMP_temperature;BMP_pressure;BME280_temperature;BME280_humidity;BME280_pressure;Samples;Min_cycle;Max_cycle;Signal;HPM_P1;HPM_P2
2023/05/13 00:00:36;;;;;;;;;12.67;12.33;;;;;16.67;65.10;102215.88;5030877;28;9160;-65
2023/05/13 00:03:03;;;;;;;;;8.00;7.33;;;;;16.65;65.20;102211.66;5032655;28;9102;-62
2023/05/13 00:05:30;;;;;;;;;12.33;11.67;;;;;16.63;64.84;102219.19;5031247;28;8946;-65
2023/05/13 00:08:00;;;;;;;;;9.67;9.33;;;;;16.56;64.88;102216.44;5048067;28;9018;-66
2023/05/13 00:10:27;;;;;;;;;11.33;11.33;;;;;16.52;65.21;102215.16;5049752;28;8978;-64
2023/05/13 00:12:53;;;;;;;;;15.00;13.00;;;;;16.48;65.28;102209.28;5050336;28;9056;-64
2023/05/13 00:15:20;;;;;;;;;14.00;11.67;;;;;16.49;65.23;102208.25;5032525;28;8976;-65
2023/05/13 00:17:46;;;;;;;;;10.33;10.00;;;;;16.55;64.91;102212.03;5050451;28;9000;-64
2023/05/13 00:20:13;;;;;;;;;11.67;11.67;;;;;16.52;64.80;102205.13;5050306;28;8918;-65
2023/05/13 00:22:39;;;;;;;;;16.33;15.00;;;;;16.52;64.79;102212.44;5040084;28;9066;-65
2023/05/13 00:25:06;;;;;;;;;11.00;11.00;;;;;16.52;64.63;102212.44;5030112;28;10024;-64
2023/05/13 00:27:32;;;;;;;;;10.33;10.00;;;;;16.49;64.28;102207.44;5030388;28;8986;-64
2023/05/13 00:29:59;;;;;;;;;13.33;12.00;;;;;16.45;64.65;102212.41;5030301;28;9059;-65
2023/05/13 00:32:26;;;;;;;;;8.67;8.67;;;;;16.46;64.25;102205.94;5012358;28;9200;-65
2023/05/13 00:34:52;;;;;;;;;9.33;8.67;;;;;16.42;63.90;102207.38;5028667;28;8942;-64
2023/05/13 00:37:19;;;;;;;;;13.33;13.33;;;;;16.40;63.53;102200.44;4996011;28;8986;-65
2023/05/13 00:39:45;;;;;;;;;10.00;10.00;;;;;16.34;63.94;102207.53;5044168;28;9046;-65
2023/05/13 00:42:12;;;;;;;;;12.67;12.67;;;;;16.34;63.42;102207.53;5048577;28;9008;-64
2023/05/13 00:44:39;;;;;;;;;15.33;14.33;;;;;16.25;62.61;102211.44;5048647;28;9139;-63
2023/05/13 00:47:06;;;;;;;;;17.67;12.67;;;;;16.17;63.06;102206.16;5049320;28;9239;-63
2023/05/13 00:49:33;;;;;;;;;11.00;11.00;;;;;16.13;63.23;102205.72;5032722;28;9304;-63
2023/05/13 00:52:00;;;;;;;;;12.00;12.00;;;;;16.14;63.06;102207.38;5032665;28;8989;-64
2023/05/13 00:54:30;;;;;;;;;10.33;10.33;;;;;16.12;63.19;102205.91;5049663;28;9965;-63
2023/05/13 00:56:57;;;;;;;;;10.67;9.33;;;;;16.14;63.10;102209.28;5016251;28;9141;-63
2023/05/13 00:59:26;;;;;;;;;13.33;13.33;;;;;16.16;62.81;102209.91;5050073;28;9211;-63
2023/05/13 01:01:52;;;;;;;;;12.33;12.33;;;;;16.15;62.68;102206.34;5049746;28;9138;-63
2023/05/13 01:04:56;;;;;;;;;12.67;12.67;;;;;16.13;62.41;102208.44;5031422;28;9368;-63
2023/05/13 01:07:33;;;;;;;;;13.33;11.00;;;;;16.07;62.05;102209.22;5048897;28;10077;-64
2023/05/13 01:10:22;;;;;;;;;14.00;13.00;;;;;16.03;62.22;102192.47;5038630;28;9068;-64
2023/05/13 01:12:55;;;;;;;;;11.33;10.67;;;;;15.99;61.71;102191.19;5011965;28;9191;-64
2023/05/13 01:15:25;;;;;;;;;12.33;11.00;;;;;16.00;61.62;102198.31;5029603;28;9115;-63
2023/05/13 01:17:58;;;;;;;;;12.67;12.67;;;;;15.95;61.27;102195.31;5030046;28;9216;-64
2023/05/13 01:20:26;;;;;;;;;14.67;10.67;;;;;15.92;61.19;102190.31;5029895;28;9165;-64
2023/05/13 01:22:53;;;;;;;;;15.33;13.33;;;;;15.92;61.44;102190.31;5012116;28;9177;-64
2023/05/13 01:25:19;;;;;;;;;11.33;11.33;;;;;15.91;60.78;102188.59;5012648;28;9245;-64
2023/05/13 01:27:47;;;;;;;;;10.67;10.67;;;;;15.91;60.98;102187.78;5031715;28;9380;-64
2023/05/13 01:30:15;;;;;;;;;12.33;12.33;;;;;15.88;60.88;102193.59;5031285;28;9216;-63
2023/05/13 01:32:43;;;;;;;;;10.67;10.67;;;;;15.80;60.22;102191.88;5048279;28;9301;-64
2023/05/13 01:35:10;;;;;;;;;11.33;11.33;;;;;15.75;60.26;102199.75;5048366;28;9208;-63
2023/05/13 01:37:42;;;;;;;;;11.33;11.33;;;;;15.74;60.68;102200.78;5031939;28;9219;-64
2023/05/13 01:40:10;;;;;;;;;15.33;13.00;;;;;15.72;60.50;102192.00;5015492;28;9480;-64
2023/05/13 01:42:50;;;;;;;;;13.67;13.33;;;;;15.66;60.18;102199.03;5048171;28;9296;-64
2023/05/13 01:45:17;;;;;;;;;13.00;11.50;;;;;15.62;60.67;102203.16;5031561;28;9385;-64
2023/05/13 01:47:43;;;;;;;;;13.75;13.75;;;;;15.60;60.83;102199.81;5031412;28;9535;-64
2023/05/13 01:50:10;;;;;;;;;13.00;11.00;;;;;15.58;60.50;102201.88;5034345;28;10266;-64
2023/05/13 01:52:36;;;;;;;;;15.50;15.50;;;;;15.57;60.85;102203.75;5051810;28;9392;-63
2023/05/13 01:55:04;;;;;;;;;14.00;14.00;;;;;15.57;61.49;102203.75;5051546;28;9450;-63
2023/05/13 01:57:31;;;;;;;;;12.67;10.67;;;;;15.55;61.72;102197.66;5035534;28;9365;-64
2023/05/13 01:59:58;;;;;;;;;15.50;14.75;;;;;15.49;61.43;102201.16;5006549;28;9445;-64
2023/05/13 02:02:24;;;;;;;;;16.00;15.67;;;;;15.42;61.35;102202.13;5032291;28;9390;-64
2023/05/13 02:04:51;;;;;;;;;18.00;16.00;;;;;15.36;62.07;102194.75;5051158;28;9359;-64
2023/05/13 02:07:17;;;;;;;;;15.75;15.00;;;;;15.31;61.88;102198.03;5034714;28;9456;-65
2023/05/13 02:09:45;;;;;;;;;13.25;11.25;;;;;15.26;62.21;102190.47;5051236;28;9395;-64
2023/05/13 02:12:12;;;;;;;;;15.75;14.75;;;;;15.25;62.44;102194.22;5034381;28;9370;-64
2023/05/13 02:14:38;;;;;;;;;13.67;13.67;;;;;15.30;62.83;102190.94;5032685;28;9546;-64
2023/05/13 02:17:05;;;;;;;;;17.25;14.75;;;;;15.25;62.47;102194.22;5031385;28;9773;-65
2023/05/13 02:19:31;;;;;;;;;14.25;13.25;;;;;15.22;62.68;102197.31;5014827;28;9465;-64
2023/05/13 02:21:58;;;;;;;;;16.00;14.75;;;;;15.24;62.82;102200.69;5014567;28;9569;-65
2023/05/13 02:24:24;;;;;;;;;19.25;16.50;;;;;15.15;61.82;102199.13;5014245;28;9657;-64
2023/05/13 02:26:52;;;;;;;;;15.33;12.00;;;;;15.11;62.36;102189.69;5030986;28;9716;-64
2023/05/13 02:29:19;;;;;;;;;14.50;14.25;;;;;15.12;62.40;102188.66;5016949;28;9314;-65
2023/05/13 02:31:45;;;;;;;;;16.50;15.25;;;;;15.11;62.38;102196.97;5042385;28;9538;-64
2023/05/13 02:34:12;;;;;;;;;18.75;15.75;;;;;15.11;62.93;102186.13;5014235;28;10392;-66
2023/05/13 02:36:40;;;;;;;;;17.75;17.00;;;;;15.03;63.04;102192.53;5031611;28;9536;-65
2023/05/13 02:39:07;;;;;;;;;17.00;16.25;;;;;15.01;63.14;102194.56;4998264;28;10307;-65
2023/05/13 02:41:36;;;;;;;;;14.75;11.75;;;;;14.99;63.34;102200.19;5014194;28;9706;-64
2023/05/13 02:44:02;;;;;;;;;14.00;13.50;;;;;14.97;63.84;102196.81;5032149;28;9625;-66
2023/05/13 02:46:29;;;;;;;;;21.00;19.25;;;;;14.96;63.87;102194.31;5032851;28;9555;-64
2023/05/13 02:48:56;;;;;;;;;14.25;14.00;;;;;14.96;63.67;102189.72;5031934;28;9446;-64
2023/05/13 02:51:22;;;;;;;;;15.50;14.75;;;;;14.99;63.81;102191.19;5031686;28;9461;-63
2023/05/13 02:53:49;;;;;;;;;19.50;18.00;;;;;14.95;63.75;102187.19;5031777;28;9596;-64
2023/05/13 02:56:15;;;;;;;;;17.50;15.25;;;;;14.88;64.34;102192.53;5030298;28;9651;-64
2023/05/13 02:58:42;;;;;;;;;19.75;17.75;;;;;14.83;64.30;102195.84;5013720;28;10502;-63
2023/05/13 03:01:09;;;;;;;;;17.50;16.25;;;;;14.88;64.35;102197.13;5028086;28;9771;-64
2023/05/13 03:03:35;;;;;;;;;19.50;19.50;;;;;14.87;64.15;102195.44;5033687;28;9527;-64
2023/05/13 03:06:03;;;;;;;;;17.50;15.75;;;;;14.81;64.48;102192.44;5017072;28;9768;-64
2023/05/13 03:08:30;;;;;;;;;18.25;16.25;;;;;14.79;64.35;102202.66;5033715;28;10432;-63
2023/05/13 03:10:57;;;;;;;;;21.25;20.50;;;;;14.71;63.84;102197.34;5033092;28;9683;-64
2023/05/13 03:13:24;;;;;;;;;18.75;17.25;;;;;14.66;64.47;102199.75;5033764;28;9671;-64
2023/05/13 03:15:51;;;;;;;;;27.00;23.75;;;;;14.63;64.45;102196.59;5030950;28;10416;-64
2023/05/13 03:18:17;;;;;;;;;18.25;16.00;;;;;14.67;65.13;102196.03;5016591;28;9836;-64
2023/05/13 03:20:45;;;;;;;;;16.00;15.75;;;;;14.66;65.05;102197.03;5013654;28;9688;-64
2023/05/13 03:23:11;;;;;;;;;18.50;18.50;;;;;14.61;64.92;102196.78;5013503;28;9681;-64
2023/05/13 03:25:38;;;;;;;;;17.75;17.75;;;;;14.59;65.07;102196.13;4996991;28;10434;-64
2023/05/13 03:28:07;;;;;;;;;24.00;21.00;;;;;14.62;65.16;102192.19;5030176;28;9525;-63
2023/05/13 03:30:38;;;;;;;;;16.25;16.00;;;;;14.63;65.55;102188.47;5013427;28;9748;-64
2023/05/13 03:33:09;;;;;;;;;16.50;14.00;;;;;14.68;65.64;102191.44;5013629;28;9535;-64
2023/05/13 03:35:36;;;;;;;;;19.25;18.00;;;;;14.71;65.32;102189.22;5013043;28;9743;-64
2023/05/13 03:38:02;;;;;;;;;23.50;21.75;;;;;14.74;65.33;102194.22;5013963;28;9617;-63
2023/05/13 03:40:30;;;;;;;;;14.67;14.67;;;;;14.73;65.52;102191.72;5014348;28;9812;-63
2023/05/13 03:42:57;;;;;;;;;22.00;20.50;;;;;14.66;64.82;102196.22;5039282;28;9518;-63
2023/05/13 03:45:23;;;;;;;;;15.75;15.25;;;;;14.64;65.39;102201.81;5034603;28;9703;-63
2023/05/13 03:47:53;;;;;;;;;18.50;17.75;;;;;14.64;65.35;102206.41;5034567;28;9667;-63
2023/05/13 03:50:22;;;;;;;;;17.75;16.75;;;;;14.63;65.40;102202.84;5016265;28;9688;-63
2023/05/13 03:52:50;;;;;;;;;21.00;16.50;;;;;14.62;65.75;102194.91;5034113;28;9629;-64
2023/05/13 03:55:18;;;;;;;;;22.50;18.25;;;;;14.64;65.13;102201.81;5049577;28;9672;-63
2023/05/13 03:57:47;;;;;;;;;23.75;19.00;;;;;14.57;64.80;102201.72;5049874;28;9779;-64
2023/05/13 04:00:15;;;;;;;;;24.75;23.25;;;;;14.45;65.47;102203.19;5016993;28;9711;-61
2023/05/13 04:02:42;;;;;;;;;22.25;20.75;;;;;14.41;65.76;102209.16;5044060;28;9874;-63
2023/05/13 04:05:12;;;;;;;;;18.00;17.00;;;;;14.42;66.00;102206.28;5012580;28;10119;-63
2023/05/13 04:07:39;;;;;;;;;20.00;17.50;;;;;14.42;65.88;102210.84;5030658;28;9807;-63
2023/05/13 04:10:07;;;;;;;;;23.25;21.00;;;;;14.40;66.08;102202.91;5030580;28;10553;-63
2023/05/13 04:12:33;;;;;;;;;19.75;19.50;;;;;14.38;65.60;102206.81;5060302;23;9692;-67
2023/05/13 04:14:59;;;;;;;;;27.00;21.00;;;;;14.33;65.87;102202.81;5065411;28;9784;-66
2023/05/13 04:17:26;;;;;;;;;22.75;20.00;;;;;14.31;66.20;102201.31;5050008;28;9777;-67
2023/05/13 04:19:53;;;;;;;;;21.00;20.00;;;;;14.31;66.07;102209.47;5061598;28;9831;-66
2023/05/13 04:22:20;;;;;;;;;22.50;18.25;;;;;14.33;66.29;102204.69;5049935;28;9835;-67
2023/05/13 04:24:50;;;;;;;;;20.50;17.75;;;;;14.33;66.18;102213.63;5049777;28;9750;-67
2023/05/13 04:27:17;;;;;;;;;16.00;16.00;;;;;14.35;66.29;102211.59;5050084;28;9704;-67
2023/05/13 04:29:44;;;;;;;;;24.00;22.00;;;;;14.35;66.10;102208.91;5048735;28;9813;-65
2023/05/13 04:32:14;;;;;;;;;22.75;18.50;;;;;14.32;65.89;102220.09;5048662;28;9993;-66
2023/05/13 04:34:42;;;;;;;;;19.25;19.25;;;;;14.28;66.56;102215.22;5040735;28;9899;-66
2023/05/13 04:37:08;;;;;;;;;25.50;21.25;;;;;14.33;66.40;102224.47;5049847;28;9832;-66
2023/05/13 04:39:35;;;;;;;;;19.50;17.00;;;;;14.33;66.19;102223.63;5048555;28;9848;-66
2023/05/13 04:42:01;;;;;;;;;21.75;20.00;;;;;14.36;66.44;102217.84;5048308;28;9776;-65
2023/05/13 04:44:29;;;;;;;;;23.25;21.75;;;;;14.48;66.18;102216.38;5047954;28;9882;-65
2023/05/13 04:46:56;;;;;;;;;24.00;23.50;;;;;14.49;65.79;102217.25;5048340;28;9812;-66
2023/05/13 04:49:23;;;;;;;;;20.25;19.50;;;;;14.56;65.76;102218.19;5043315;28;10033;-66
2023/05/13 04:51:50;;;;;;;;;17.25;15.25;;;;;14.66;66.05;102224.16;5025670;28;9890;-65
2023/05/13 04:54:18;;;;;;;;;27.00;25.25;;;;;14.73;65.24;102222.38;5024864;28;9531;-66
2023/05/13 04:56:45;;;;;;;;;24.25;20.75;;;;;14.69;64.75;102228.34;4992385;28;9774;-65
2023/05/13 04:59:11;;;;;;;;;19.50;18.25;;;;;14.69;65.57;102234.63;5008641;28;10521;-66
2023/05/13 05:01:39;;;;;;;;;22.00;20.00;;;;;14.66;65.37;102234.97;5024862;28;9708;-65
2023/05/13 05:04:06;;;;;;;;;20.25;17.50;;;;;14.66;65.55;102236.84;5008472;28;9724;-66
2023/05/13 05:06:34;;;;;;;;;21.25;21.00;;;;;14.72;66.07;102242.38;5016861;28;9544;-66
2023/05/13 05:09:01;;;;;;;;;28.75;25.50;;;;;14.68;65.05;102235.66;5024988;28;9697;-66
2023/05/13 05:11:28;;;;;;;;;20.75;18.50;;;;;14.65;65.51;102232.47;5024918;28;9937;-65
2023/05/13 05:13:55;;;;;;;;;19.50;17.00;;;;;14.67;65.87;102238.56;5024977;28;9603;-66
2023/05/13 05:16:22;;;;;;;;;16.50;15.50;;;;;14.66;66.21;102240.41;5024719;28;9692;-65
2023/05/13 05:18:49;;;;;;;;;22.25;21.75;;;;;14.65;66.16;102238.72;5008469;28;9783;-66
2023/05/13 05:21:17;;;;;;;;;19.25;17.00;;;;;14.67;66.30;102241.28;5024678;28;10787;-67
2023/05/13 05:23:43;;;;;;;;;18.00;16.50;;;;;14.69;66.40;102225.66;5064055;28;9660;-65
2023/05/13 05:26:11;;;;;;;;;21.50;20.00;;;;;14.68;66.46;102238.38;5051390;28;9855;-65
2023/05/13 05:28:41;;;;;;;;;24.25;21.50;;;;;14.73;66.50;102238.63;5051662;28;9913;-65
2023/05/13 05:31:08;;;;;;;;;24.50;23.25;;;;;14.77;65.99;102245.38;5052374;28;9769;-66
2023/05/13 05:33:35;;;;;;;;;20.00;20.00;;;;;14.77;66.49;102248.06;5051753;28;9926;-66
2023/05/13 05:36:04;;;;;;;;;23.00;21.75;;;;;14.79;66.09;102242.50;5046132;28;10267;-65
2023/05/13 05:38:31;;;;;;;;;24.25;22.50;;;;;14.77;66.96;102241.81;5048550;28;10442;-66
2023/05/13 05:40:58;;;;;;;;;21.50;21.50;;;;;14.77;66.96;102244.53;5031449;28;9710;-66
2023/05/13 05:43:25;;;;;;;;;23.75;21.75;;;;;14.79;67.08;102254.16;5015361;28;9763;-64
2023/05/13 05:45:52;;;;;;;;;19.25;16.75;;;;;14.84;67.28;102250.88;5015199;28;9716;-65
2023/05/13 05:48:19;;;;;;;;;21.00;19.75;;;;;14.92;67.20;102252.66;5031649;28;9595;-64
2023/05/13 05:50:47;;;;;;;;;17.75;15.50;;;;;14.99;67.36;102246.28;5048226;28;9802;-66
2023/05/13 05:53:20;;;;;;;;;21.25;17.75;;;;;15.10;67.51;102253.09;5051230;28;9477;-65
2023/05/13 05:55:47;;;;;;;;;22.00;20.25;;;;;15.22;67.41;102257.00;5050887;28;9559;-66
2023/05/13 05:58:16;;;;;;;;;22.00;21.00;;;;;15.39;67.20;102256.75;5051292;28;9457;-66
2023/05/13 06:00:43;;;;;;;;;17.50;17.50;;;;;15.49;66.81;102260.84;5052533;28;9442;-66
2023/05/13 06:03:10;;;;;;;;;26.00;22.50;;;;;15.60;66.65;102254.09;5051398;28;9537;-65
2023/05/13 06:05:37;;;;;;;;;18.75;18.75;;;;;15.71;65.77;102258.19;5050965;28;9546;-67
2023/05/13 06:08:04;;;;;;;;;20.00;18.25;;;;;15.83;66.00;102257.47;5051016;28;9451;-66
2023/05/13 06:10:31;;;;;;;;;22.33;19.00;;;;;16.02;65.60;102263.28;5033015;28;9468;-67
2023/05/13 06:12:57;;;;;;;;;21.00;19.33;;;;;16.13;65.14;102251.91;5052395;28;9440;-67
2023/05/13 06:15:24;;;;;;;;;19.75;19.00;;;;;16.16;65.37;102256.06;5052158;28;10034;-67
2023/05/13 06:17:50;;;;;;;;;23.50;22.25;;;;;16.19;64.05;102256.53;5052240;28;9449;-66
2023/05/13 06:20:17;;;;;;;;;20.33;16.33;;;;;16.19;64.80;102255.69;5050847;28;9541;-66
2023/05/13 06:22:44;;;;;;;;;21.00;20.67;;;;;16.19;65.11;102253.81;5050821;28;9358;-66
2023/05/13 06:25:10;;;;;;;;;18.00;16.33;;;;;16.23;65.40;102256.97;5048726;28;9540;-66
2023/05/13 06:27:39;;;;;;;;;24.75;23.00;;;;;16.17;64.11;102250.47;5050872;28;10298;-66
2023/05/13 06:30:06;;;;;;;;;23.25;20.00;;;;;16.17;64.07;102247.75;5052577;28;9497;-66
2023/05/13 06:32:32;;;;;;;;;21.67;19.00;;;;;16.19;63.98;102252.97;5051895;28;9381;-66
2023/05/13 06:34:59;;;;;;;;;21.33;18.00;;;;;16.17;63.48;102253.19;5050046;28;9391;-66
2023/05/13 06:37:26;;;;;;;;;24.50;24.00;;;;;16.12;63.00;102252.91;5050530;28;9297;-66
2023/05/13 06:39:52;;;;;;;;;21.50;21.50;;;;;16.07;63.21;102245.34;5042248;28;9678;-67
2023/05/13 06:42:19;;;;;;;;;24.00;24.00;;;;;16.09;63.31;102252.50;5031886;28;9645;-66
2023/05/13 06:44:53;;;;;;;;;17.33;17.00;;;;;16.12;63.71;102261.06;5014961;28;9402;-66
2023/05/13 06:47:25;;;;;;;;;18.00;15.00;;;;;16.17;63.86;102265.94;5030571;28;9270;-67
2023/05/13 06:49:52;;;;;;;;;22.00;21.50;;;;;16.15;63.08;102259.84;5030349;28;9451;-66
2023/05/13 06:52:18;;;;;;;;;19.50;19.25;;;;;16.10;62.99;102262.31;5030484;28;9585;-67
2023/05/13 06:54:45;;;;;;;;;20.67;19.33;;;;;16.12;63.20;102268.38;5031724;28;9370;-67
2023/05/13 06:57:11;;;;;;;;;12.33;12.33;;;;;16.17;63.38;102263.22;5051483;28;9413;-65
2023/05/13 06:59:38;;;;;;;;;20.50;19.00;;;;;16.19;62.90;102261.97;5050167;28;9119;-65
2023/05/13 07:02:04;;;;;;;;;24.75;21.75;;;;;16.17;62.70;102265.94;5050068;28;9602;-66
2023/05/13 07:04:31;;;;;;;;;21.67;19.33;;;;;16.14;62.58;102267.16;5039636;28;9572;-66
2023/05/13 07:06:57;;;;;;;;;21.33;20.00;;;;;16.15;62.30;102263.41;5049796;28;10086;-67
2023/05/13 07:09:24;;;;;;;;;21.33;17.67;;;;;16.23;62.32;102267.84;5032724;28;9456;-67
2023/05/13 07:11:50;;;;;;;;;18.00;18.00;;;;;16.27;62.06;102260.97;5046954;28;9235;-66
2023/05/13 07:14:17;;;;;;;;;20.00;18.33;;;;;16.29;61.72;102262.47;5049479;28;9232;-66
2023/05/13 07:16:43;;;;;;;;;21.00;18.00;;;;;16.36;62.07;102257.06;5051055;28;9319;-67
2023/05/13 07:19:10;;;;;;;;;19.33;19.33;;;;;16.44;62.20;102261.53;5050762;28;9393;-66
2023/05/13 07:21:37;;;;;;;;;18.00;18.00;;;;;16.47;61.91;102259.25;5050777;28;9437;-66
2023/05/13 07:24:04;;;;;;;;;20.33;17.33;;;;;16.46;62.43;102260.28;5047561;28;9331;-66
2023/05/13 07:26:31;;;;;;;;;18.33;16.33;;;;;16.47;61.86;102261.97;5045856;28;9337;-66
2023/05/13 07:28:58;;;;;;;;;20.67;17.67;;;;;16.53;62.29;102263.91;5046018;28;9272;-66
2023/05/13 07:31:25;;;;;;;;;20.00;18.00;;;;;16.63;62.27;102263.53;5029252;28;9495;-66
2023/05/13 07:33:51;;;;;;;;;22.33;21.00;;;;;16.66;61.45;102254.16;5030934;28;9290;-66
2023/05/13 07:36:18;;;;;;;;;16.67;16.00;;;;;16.65;61.20;102266.03;5046786;28;9410;-67
2023/05/13 07:38:44;;;;;;;;;20.67;18.33;;;;;16.64;60.81;102267.94;5050763;28;9156;-65
2023/05/13 07:41:11;;;;;;;;;18.33;17.33;;;;;16.68;61.09;102261.03;5035745;28;9393;-66
2023/05/13 07:43:39;;;;;;;;;18.00;18.00;;;;;16.70;60.95;102264.41;5033002;28;9359;-66
2023/05/13 07:46:06;;;;;;;;;17.67;17.67;;;;;16.75;60.68;102255.69;5041537;28;9210;-66
2023/05/13 07:48:32;;;;;;;;;23.00;20.33;;;;;16.76;60.02;102262.81;5050452;28;10057;-67
2023/05/13 07:50:59;;;;;;;;;22.33;20.00;;;;;16.71;59.78;102260.66;5050476;28;10171;-67
2023/05/13 07:53:26;;;;;;;;;19.67;18.00;;;;;16.65;59.38;102271.47;5049224;28;9417;-66
2023/05/13 07:55:52;;;;;;;;;16.00;15.67;;;;;16.66;59.46;102273.19;5050307;28;9298;-67
2023/05/13 07:58:19;;;;;;;;;17.33;14.00;;;;;16.68;59.46;102260.22;5050946;28;9373;-65
2023/05/13 08:00:48;;;;;;;;;21.00;20.33;;;;;16.73;58.94;102268.63;5030348;28;9214;-66
2023/05/13 08:03:15;;;;;;;;;15.67;15.33;;;;;16.82;58.82;102267.44;5030533;28;9457;-66
2023/05/13 08:05:42;;;;;;;;;22.67;21.00;;;;;16.87;58.17;102264.13;5030309;28;9258;-66
2023/05/13 08:08:09;;;;;;;;;16.67;16.67;;;;;16.91;58.22;102262.69;5030534;28;9356;-66
2023/05/13 08:10:35;;;;;;;;;16.67;16.67;;;;;16.97;57.91;102265.41;5045585;28;9201;-66
2023/05/13 08:13:01;;;;;;;;;22.00;19.00;;;;;17.02;57.99;102265.66;5029868;28;9184;-66
2023/05/13 08:15:28;;;;;;;;;18.33;18.33;;;;;17.09;58.30;102273.00;5031001;28;9148;-67
2023/05/13 08:17:55;;;;;;;;;18.00;17.67;;;;;17.11;56.95;102260.88;5030175;28;9158;-67
2023/05/13 08:20:28;;;;;;;;;19.67;17.67;;;;;17.14;57.33;102262.38;5028982;28;9112;-67
2023/05/13 08:22:56;;;;;;;;;17.33;15.33;;;;;17.17;58.04;102273.66;5030153;28;9359;-67
2023/05/13 08:25:23;;;;;;;;;19.00;17.67;;;;;17.18;57.66;102264.50;5045199;28;9068;-67
2023/05/13 08:27:49;;;;;;;;;20.33;19.00;;;;;17.20;56.97;102265.09;5040183;28;9169;-66
2023/05/13 08:30:16;;;;;;;;;14.00;12.00;;;;;17.25;57.89;102269.94;5050043;28;9374;-66
2023/05/13 08:32:42;;;;;;;;;19.00;18.33;;;;;17.28;56.52;102272.25;5049978;28;9064;-66
2023/05/13 08:35:09;;;;;;;;;19.33;16.00;;;;;17.19;56.72;102268.88;5049330;28;9316;-66
2023/05/13 08:37:35;;;;;;;;;18.67;18.67;;;;;17.18;57.40;102269.09;5049951;28;9346;-67
2023/05/13 08:40:03;;;;;;;;;18.67;17.00;;;;;17.23;57.74;102269.31;5049613;28;9816;-65
2023/05/13 08:42:37;;;;;;;;;16.33;16.33;;;;;17.28;57.54;102272.25;5028381;28;9257;-66
2023/05/13 08:45:06;;;;;;;;;18.33;16.67;;;;;17.33;57.41;102264.31;5025115;28;9304;-67
2023/05/13 08:47:50;;;;;;;;;12.00;11.00;;;;;17.35;57.74;102267.69;5010278;28;9228;-66
2023/05/13 08:50:18;;;;;;;;;18.67;18.67;;;;;17.37;56.92;102267.47;5010092;28;9003;-67
2023/05/13 08:52:45;;;;;;;;;18.67;18.67;;;;;17.43;55.85;102270.22;5009462;28;9114;-65
2023/05/13 08:55:11;;;;;;;;;11.67;11.67;;;;;17.46;56.81;102269.81;5008198;28;9320;-66
2023/05/13 08:57:38;;;;;;;;;14.00;14.00;;;;;17.54;57.13;102266.03;5029192;28;9014;-66
2023/05/13 09:00:05;;;;;;;;;16.33;15.67;;;;;17.59;56.66;102277.19;5053718;28;9022;-66
2023/05/13 09:02:32;;;;;;;;;21.33;20.00;;;;;17.61;55.02;102277.78;5053709;28;9232;-66
2023/05/13 09:05:03;;;;;;;;;19.00;19.00;;;;;17.41;55.91;102282.34;5035324;28;9240;-67
2023/05/13 09:07:30;;;;;;;;;15.67;15.67;;;;;17.40;57.02;102272.50;5053973;28;9302;-67
2023/05/13 09:09:58;;;;;;;;;20.00;17.00;;;;;17.39;56.29;102284.44;5051948;28;9011;-66
2023/05/13 09:12:51;;;;;;;;;19.00;19.00;;;;;17.40;55.75;102275.22;5051926;28;9222;-67
2023/05/13 09:15:25;;;;;;;;;22.00;16.67;;;;;17.33;56.27;102274.38;5034204;28;9251;-65
2023/05/13 09:18:02;;;;;;;;;17.67;15.33;;;;;17.29;55.96;102272.03;5033521;28;9185;-67
2023/05/13 09:20:29;;;;;;;;;20.67;19.00;;;;;17.32;56.03;102278.13;5032239;28;9090;-67
2023/05/13 09:23:01;;;;;;;;;20.67;19.67;;;;;17.32;55.62;102280.84;5033639;28;9254;-67
2023/05/13 09:25:28;;;;;;;;;16.33;15.33;;;;;17.32;56.37;102278.13;5033529;28;9084;-65
2023/05/13 09:27:59;;;;;;;;;15.67;14.67;;;;;17.39;57.10;102279.84;5033205;28;9098;-67
2023/05/13 09:30:32;;;;;;;;;19.00;16.67;;;;;17.41;55.93;102285.91;5034443;28;9012;-66
2023/05/13 09:33:13;;;;;;;;;20.33;16.00;;;;;17.46;56.32;102282.56;5033010;28;9064;-67
2023/05/13 09:35:43;;;;;;;;;17.33;17.33;;;;;17.53;56.69;102270.66;5031598;28;9067;-65
2023/05/13 09:38:15;;;;;;;;;20.00;17.67;;;;;17.65;56.75;102280.94;5033114;28;9070;-66
2023/05/13 09:40:52;;;;;;;;;17.67;17.67;;;;;17.74;56.37;102276.97;5033017;28;9155;-67
2023/05/13 09:43:23;;;;;;;;;14.67;14.67;;;;;17.92;56.45;102276.44;5033422;28;9165;-67
2023/05/13 09:46:15;;;;;;;;;21.33;20.00;;;;;18.06;56.37;102267.19;5047901;28;8988;-67
2023/05/13 09:48:43;;;;;;;;;17.33;15.67;;;;;18.15;55.81;102276.88;5049968;28;9816;-66
2023/05/13 09:51:10;;;;;;;;;16.33;15.33;;;;;18.19;54.77;102267.22;5051305;28;9073;-66
2023/05/13 09:53:39;;;;;;;;;16.67;16.67;;;;;18.16;55.24;102269.53;5052640;28;8990;-67
2023/05/13 09:56:08;;;;;;;;;18.00;17.00;;;;;18.16;55.91;102275.81;5052116;28;8927;-66
2023/05/13 09:58:35;;;;;;;;;17.00;16.00;;;;;18.21;56.36;102273.28;5052670;28;9777;-67
2023/05/13 10:01:01;;;;;;;;;19.33;19.33;;;;;18.31;55.33;102270.16;5050842;28;9162;-67
2023/05/13 10:03:28;;;;;;;;;22.67;19.33;;;;;18.35;55.24;102270.53;5051144;28;9100;-66
2023/05/13 10:05:56;;;;;;;;;24.33;21.67;;;;;18.24;55.20;102275.59;5051831;28;9071;-67
2023/05/13 10:08:23;;;;;;;;;26.00;26.00;;;;;18.13;55.38;102273.50;5051130;28;9886;-67
2023/05/13 10:10:54;;;;;;;;;22.33;20.67;;;;;18.07;56.21;102274.34;5051577;28;9290;-67
2023/05/13 10:13:23;;;;;;;;;18.67;18.67;;;;;18.08;56.63;102269.72;5052938;28;9118;-67
2023/05/13 10:15:54;;;;;;;;;19.67;19.33;;;;;18.15;55.66;102271.41;5052141;28;9047;-66
2023/05/13 10:18:22;;;;;;;;;20.67;19.00;;;;;18.27;54.44;102274.31;5050763;28;9077;-67
2023/05/13 10:20:51;;;;;;;;;23.00;22.67;;;;;18.24;54.93;102261.97;5051075;28;9045;-66
2023/05/13 10:23:20;;;;;;;;;19.33;18.00;;;;;18.18;55.13;102268.25;5052329;28;9187;-67
2023/05/13 10:25:47;;;;;;;;;20.67;20.33;;;;;18.20;56.00;102270.78;5052123;28;9106;-66
2023/05/13 10:28:15;;;;;;;;;17.67;15.67;;;;;18.28;55.41;102251.47;5052166;28;9051;-66
2023/05/13 10:30:42;;;;;;;;;17.33;17.33;;;;;18.37;54.61;102258.38;5052380;28;9053;-65
2023/05/13 10:33:09;;;;;;;;;21.33;21.00;;;;;18.42;54.13;102252.28;5051579;28;8986;-68
2023/05/13 10:35:39;;;;;;;;;14.00;14.00;;;;;18.48;54.69;102259.66;5050628;28;9872;-66
2023/05/13 10:38:20;;;;;;;;;19.00;15.67;;;;;18.57;55.27;102252.91;5051957;28;9076;-65
2023/05/13 10:41:08;;;;;;;;;19.67;19.67;;;;;18.60;52.70;102241.56;5050594;28;8929;-66
2023/05/13 10:43:35;;;;;;;;;12.67;12.00;;;;;18.64;53.58;102240.09;5051808;28;9194;-67
2023/05/13 10:46:11;;;;;;;;;16.00;16.00;;;;;18.77;54.53;102245.53;5051530;28;9067;-66
2023/05/13 10:48:42;;;;;;;;;16.67;16.67;;;;;18.86;53.46;102250.75;5039389;28;9123;-65
2023/05/13 10:51:13;;;;;;;;;15.33;13.67;;;;;18.85;53.47;102235.44;5030321;28;9063;-66
2023/05/13 10:53:53;;;;;;;;;18.25;18.25;;;;;18.89;54.43;102243.00;5030336;28;9257;-66
2023/05/13 10:56:23;;;;;;;;;16.33;14.67;;;;;18.93;55.50;102238.78;5031284;28;8817;-66
2023/05/13 10:58:59;;;;;;;;;18.00;14.67;;;;;18.96;55.82;102237.50;5031496;28;8963;-66
2023/05/13 11:01:46;;;;;;;;;15.50;15.00;;;;;19.01;55.72;102233.06;5032955;28;8927;-67
2023/05/13 11:04:18;;;;;;;;;21.00;19.00;;;;;19.03;54.54;102233.69;5050783;28;9524;-67
2023/05/13 11:06:47;;;;;;;;;21.67;19.00;;;;;19.02;54.63;102236.63;5051180;28;9716;-66
2023/05/13 11:09:19;;;;;;;;;17.50;17.25;;;;;19.07;55.38;102235.97;5051326;28;8912;-66
2023/05/13 11:11:48;;;;;;;;;16.00;14.67;;;;;19.07;55.37;102230.53;5051011;28;8952;-67
2023/05/13 11:14:21;;;;;;;;;24.33;20.33;;;;;19.07;55.39;102235.97;5050909;28;8994;-67
2023/05/13 11:17:00;;;;;;;;;25.67;25.67;;;;;18.97;54.99;102231.00;5051299;28;9449;-66
2023/05/13 11:19:30;;;;;;;;;23.67;21.67;;;;;18.99;55.42;102226.97;5033952;28;9224;-66
2023/05/13 11:22:03;;;;;;;;;21.33;19.33;;;;;19.09;56.21;102234.72;5030200;28;9156;-67